sensor_id;sensor_type;location;lat;lon;timestamp;P1;durP1;ratioP1;P2;durP2;ratioP2
14326;SDS011;7247;53.330;-1.180;2022-11-09T00:02:13;10.30;;;3.30;;
14326;SDS011;7247;53.330;-1.180;2022-11-09T00:04:40;15.00;;;3.63;;
14326;SDS011;7247;53.330;-1.180;2022-11-09T00:07:06;16.63;;;3.80;;
14326;SDS011;7247;53.330;-1.180;2022-11-09T00:09:33;16.20;;;3.43;;
14326;SDS011;7247;53.330;-1.180;2022-11-09T00:11:59;10.27;;;3.57;;
14326;SDS011;7247;53.330;-1.180;2022-11-09T00:14:28;14.83;;;4.10;;
14326;SDS011;7247;53.330;-1.180;2022-11-09T00:16:57;11.20;;;3.80;;
14326;SDS011;7247;53.330;-1.180;2022-11-09T00:19:23;15.80;;;3.90;;
14326;SDS011;7247;53.330;-1.180;2022-11-09T00:21:50;12.37;;;3.37;;
14326;SDS011;7247;53.330;-1.180;2022-11-09T00:24:16;15.40;;;3.77;;
14326;SDS011;7247;53.330;-1.180;2022-11-09T00:26:43;13.13;;;3.83;;
14326;SDS011;7247;53.330;-1.180;2022-11-09T00:29:09;14.10;;;3.77;;
14326;SDS011;7247;53.330;-1.180;2022-11-09T00:31:35;14.10;;;3.83;;
14326;SDS011;7247;53.330;-1.180;2022-11-09T00:34:03;10.03;;;3.17;;
14326;SDS011;7247;53.330;-1.180;2022-11-09T00:36:30;14.47;;;3.90;;
14326;SDS011;7247;53.330;-1.180;2022-11-09T00:38:58;14.17;;;3.80;;
14326;SDS011;7247;53.330;-1.180;2022-11-09T00:41:25;16.10;;;3.50;;
14326;SDS011;7247;53.330;-1.180;2022-11-09T00:43:52;10.03;;;2.90;;
14326;SDS011;7247;53.330;-1.180;2022-11-09T00:46:18;12.87;;;3.60;;
14326;SDS011;7247;53.330;-1.180;2022-11-09T00:48:45;15.67;;;3.80;;
14326;SDS011;7247;53.330;-1.180;2022-11-09T00:51:13;15.40;;;3.40;;
14326;SDS011;7247;53.330;-1.180;2022-11-09T00:53:39;15.57;;;3.67;;
14326;SDS011;7247;53.330;-1.180;2022-11-09T00:56:08;17.17;;;3.37;;
14326;SDS011;7247;53.330;-1.180;2022-11-09T00:58:35;16.13;;;3.30;;
14326;SDS011;7247;53.330;-1.180;2022-11-09T01:01:04;13.23;;;3.80;;
14326;SDS011;7247;53.330;-1.180;2022-11-09T01:03:31;15.90;;;3.37;;
14326;SDS011;7247;53.330;-1.180;2022-11-09T01:05:58;14.80;;;3.33;;
14326;SDS011;7247;53.330;-1.180;2022-11-09T01:08:26;12.20;;;3.10;;
14326;SDS011;7247;53.330;-1.180;2022-11-09T01:10:52;17.47;;;3.37;;
14326;SDS011;7247;53.330;-1.180;2022-11-09T01:13:18;17.57;;;3.73;;
14326;SDS011;7247;53.330;-1.180;2022-11-09T01:15:45;10.20;;;3.40;;
14326;SDS011;7247;53.330;-1.180;2022-11-09T01:18:12;19.40;;;3.73;;
14326;SDS011;7247;53.330;-1.180;2022-11-09T01:20:39;12.43;;;3.40;;
14326;SDS011;7247;53.330;-1.180;2022-11-09T01:23:06;14.83;;;3.73;;
14326;SDS011;7247;53.330;-1.180;2022-11-09T01:25:34;14.50;;;3.60;;
14326;SDS011;7247;53.330;-1.180;2022-11-09T01:28:00;13.37;;;3.93;;
14326;SDS011;7247;53.330;-1.180;2022-11-09T01:30:27;13.57;;;3.63;;
14326;SDS011;7247;53.330;-1.180;2022-11-09T01:32:53;13.43;;;3.60;;
14326;SDS011;7247;53.330;-1.180;2022-11-09T01:35:20;11.70;;;3.80;;
14326;SDS011;7247;53.330;-1.180;2022-11-09T01:37:46;18.10;;;4.93;;
14326;SDS011;7247;53.330;-1.180;2022-11-09T01:40:12;12.13;;;3.30;;
14326;SDS011;7247;53.330;-1.180;2022-11-09T01:42:40;15.00;;;4.17;;
14326;SDS011;7247;53.330;-1.180;2022-11-09T01:45:23;13.57;;;3.50;;
14326;SDS011;7247;53.330;-1.180;2022-11-09T01:47:51;18.77;;;3.60;;
14326;SDS011;7247;53.330;-1.180;2022-11-09T01:50:20;10.73;;;3.13;;
14326;SDS011;7247;53.330;-1.180;2022-11-09T01:52:48;8.93;;;3.30;;
14326;SDS011;7247;53.330;-1.180;2022-11-09T01:55:15;13.73;;;3.33;;
14326;SDS011;7247;53.330;-1.180;2022-11-09T01:57:44;12.70;;;3.20;;
14326;SDS011;7247;53.330;-1.180;2022-11-09T02:00:13;14.37;;;3.17;;
14326;SDS011;7247;53.330;-1.180;2022-11-09T02:02:41;11.27;;;2.83;;
14326;SDS011;7247;53.330;-1.180;2022-11-09T02:05:09;15.03;;;3.13;;
14326;SDS011;7247;53.330;-1.180;2022-11-09T02:07:37;13.07;;;2.83;;
14326;SDS011;7247;53.330;-1.180;2022-11-09T02:10:07;15.80;;;3.40;;
14326;SDS011;7247;53.330;-1.180;2022-11-09T02:12:35;14.60;;;3.30;;
14326;SDS011;7247;53.330;-1.180;2022-11-09T02:15:04;10.53;;;3.07;;
14326;SDS011;7247;53.330;-1.180;2022-11-09T02:17:32;13.23;;;3.07;;
14326;SDS011;7247;53.330;-1.180;2022-11-09T02:19:59;12.00;;;2.80;;
14326;SDS011;7247;53.330;-1.180;2022-11-09T02:22:29;13.83;;;3.10;;
14326;SDS011;7247;53.330;-1.180;2022-11-09T02:24:55;10.50;;;3.10;;
14326;SDS011;7247;53.330;-1.180;2022-11-09T02:27:21;16.77;;;3.17;;
14326;SDS011;7247;53.330;-1.180;2022-11-09T02:29:48;14.33;;;3.00;;
14326;SDS011;7247;53.330;-1.180;2022-11-09T02:32:16;10.73;;;3.00;;
14326;SDS011;7247;53.330;-1.180;2022-11-09T02:34:44;9.87;;;2.93;;
14326;SDS011;7247;53.330;-1.180;2022-11-09T02:37:10;17.97;;;3.13;;
14326;SDS011;7247;53.330;-1.180;2022-11-09T02:39:38;12.63;;;3.03;;
14326;SDS011;7247;53.330;-1.180;2022-11-09T02:42:07;14.03;;;3.27;;
14326;SDS011;7247;53.330;-1.180;2022-11-09T02:44:35;15.87;;;3.20;;
14326;SDS011;7247;53.330;-1.180;2022-11-09T02:47:03;10.77;;;2.93;;
14326;SDS011;7247;53.330;-1.180;2022-11-09T02:49:30;14.63;;;3.40;;
14326;SDS011;7247;53.330;-1.180;2022-11-09T02:51:56;13.63;;;2.90;;
14326;SDS011;7247;53.330;-1.180;2022-11-09T02:54:22;13.80;;;3.07;;
14326;SDS011;7247;53.330;-1.180;2022-11-09T02:56:50;15.83;;;2.93;;
14326;SDS011;7247;53.330;-1.180;2022-11-09T02:59:17;16.80;;;3.40;;
14326;SDS011;7247;53.330;-1.180;2022-11-09T03:01:43;13.70;;;2.70;;
14326;SDS011;7247;53.330;-1.180;2022-11-09T03:04:09;15.07;;;2.87;;
14326;SDS011;7247;53.330;-1.180;2022-11-09T03:06:36;13.57;;;3.00;;
14326;SDS011;7247;53.330;-1.180;2022-11-09T03:09:03;15.70;;;2.70;;
14326;SDS011;7247;53.330;-1.180;2022-11-09T03:11:30;15.20;;;2.87;;
14326;SDS011;7247;53.330;-1.180;2022-11-09T03:13:58;16.53;;;3.47;;
14326;SDS011;7247;53.330;-1.180;2022-11-09T03:16:24;17.57;;;3.13;;
14326;SDS011;7247;53.330;-1.180;2022-11-09T03:18:51;15.40;;;2.73;;
14326;SDS011;7247;53.330;-1.180;2022-11-09T03:21:17;12.63;;;2.83;;
14326;SDS011;7247;53.330;-1.180;2022-11-09T03:23:44;15.93;;;2.70;;
14326;SDS011;7247;53.330;-1.180;2022-11-09T03:26:10;12.13;;;2.57;;
14326;SDS011;7247;53.330;-1.180;2022-11-09T03:28:37;9.33;;;2.30;;
14326;SDS011;7247;53.330;-1.180;2022-11-09T03:31:05;10.30;;;2.60;;
14326;SDS011;7247;53.330;-1.180;2022-11-09T03:33:31;14.97;;;3.13;;
14326;SDS011;7247;53.330;-1.180;2022-11-09T03:35:58;10.00;;;3.23;;
14326;SDS011;7247;53.330;-1.180;2022-11-09T03:38:24;15.93;;;3.30;;
14326;SDS011;7247;53.330;-1.180;2022-11-09T03:40:51;9.80;;;2.67;;
14326;SDS011;7247;53.330;-1.180;2022-11-09T03:43:17;19.77;;;3.27;;
14326;SDS011;7247;53.330;-1.180;2022-11-09T03:45:45;11.63;;;2.83;;
14326;SDS011;7247;53.330;-1.180;2022-11-09T03:48:12;11.20;;;2.70;;
14326;SDS011;7247;53.330;-1.180;2022-11-09T03:50:39;9.50;;;2.33;;
14326;SDS011;7247;53.330;-1.180;2022-11-09T03:53:05;17.07;;;3.47;;
14326;SDS011;7247;53.330;-1.180;2022-11-09T03:55:32;18.37;;;2.83;;
14326;SDS011;7247;53.330;-1.180;2022-11-09T03:57:59;15.67;;;3.30;;
14326;SDS011;7247;53.330;-1.180;2022-11-09T04:00:25;15.60;;;3.03;;
14326;SDS011;7247;53.330;-1.180;2022-11-09T04:02:52;16.43;;;2.80;;
14326;SDS011;7247;53.330;-1.180;2022-11-09T04:05:19;15.67;;;2.60;;
14326;SDS011;7247;53.330;-1.180;2022-11-09T04:07:46;13.67;;;2.83;;
14326;SDS011;7247;53.330;-1.180;2022-11-09T04:10:13;15.60;;;3.17;;
14326;SDS011;7247;53.330;-1.180;2022-11-09T04:12:39;12.43;;;2.70;;
14326;SDS011;7247;53.330;-1.180;2022-11-09T04:15:06;12.07;;;3.13;;
14326;SDS011;7247;53.330;-1.180;2022-11-09T04:17:32;12.57;;;3.33;;
14326;SDS011;7247;53.330;-1.180;2022-11-09T04:19:59;12.20;;;2.90;;
14326;SDS011;7247;53.330;-1.180;2022-11-09T04:22:27;11.00;;;2.80;;
14326;SDS011;7247;53.330;-1.180;2022-11-09T04:24:53;10.20;;;3.17;;
14326;SDS011;7247;53.330;-1.180;2022-11-09T04:27:20;11.97;;;3.03;;
14326;SDS011;7247;53.330;-1.180;2022-11-09T04:29:46;14.27;;;2.97;;
14326;SDS011;7247;53.330;-1.180;2022-11-09T04:32:12;13.27;;;2.80;;
14326;SDS011;7247;53.330;-1.180;2022-11-09T04:34:39;9.30;;;3.03;;
14326;SDS011;7247;53.330;-1.180;2022-11-09T04:37:06;14.37;;;3.07;;
14326;SDS011;7247;53.330;-1.180;2022-11-09T04:39:34;13.73;;;3.03;;
14326;SDS011;7247;53.330;-1.180;2022-11-09T04:42:00;13.10;;;3.20;;
14326;SDS011;7247;53.330;-1.180;2022-11-09T04:44:26;13.77;;;3.43;;
14326;SDS011;7247;53.330;-1.180;2022-11-09T04:46:53;10.87;;;3.20;;
14326;SDS011;7247;53.330;-1.180;2022-11-09T04:49:20;13.87;;;3.53;;
14326;SDS011;7247;53.330;-1.180;2022-11-09T04:51:46;10.97;;;3.23;;
14326;SDS011;7247;53.330;-1.180;2022-11-09T04:54:13;10.77;;;2.90;;
14326;SDS011;7247;53.330;-1.180;2022-11-09T04:56:41;12.17;;;3.43;;
14326;SDS011;7247;53.330;-1.180;2022-11-09T04:59:07;13.97;;;3.40;;
14326;SDS011;7247;53.330;-1.180;2022-11-09T05:01:33;13.80;;;3.67;;
14326;SDS011;7247;53.330;-1.180;2022-11-09T05:04:00;12.10;;;3.30;;
14326;SDS011;7247;53.330;-1.180;2022-11-09T05:06:26;16.07;;;3.60;;
14326;SDS011;7247;53.330;-1.180;2022-11-09T05:08:59;15.03;;;3.33;;
14326;SDS011;7247;53.330;-1.180;2022-11-09T05:11:25;15.03;;;3.40;;
14326;SDS011;7247;53.330;-1.180;2022-11-09T05:13:53;15.13;;;3.73;;
14326;SDS011;7247;53.330;-1.180;2022-11-09T05:16:20;15.80;;;3.87;;
14326;SDS011;7247;53.330;-1.180;2022-11-09T05:18:47;19.70;;;4.13;;
14326;SDS011;7247;53.330;-1.180;2022-11-09T05:21:13;18.90;;;3.90;;
14326;SDS011;7247;53.330;-1.180;2022-11-09T05:23:40;14.23;;;3.80;;
14326;SDS011;7247;53.330;-1.180;2022-11-09T05:26:23;13.80;;;3.33;;
14326;SDS011;7247;53.330;-1.180;2022-11-09T05:28:50;15.50;;;3.70;;
14326;SDS011;7247;53.330;-1.180;2022-11-09T05:31:18;16.67;;;4.07;;
14326;SDS011;7247;53.330;-1.180;2022-11-09T05:33:47;13.47;;;3.73;;
14326;SDS011;7247;53.330;-1.180;2022-11-09T05:36:13;18.93;;;3.70;;
14326;SDS011;7247;53.330;-1.180;2022-11-09T05:38:39;18.13;;;4.33;;
14326;SDS011;7247;53.330;-1.180;2022-11-09T05:41:06;15.30;;;3.40;;
14326;SDS011;7247;53.330;-1.180;2022-11-09T05:43:32;11.70;;;3.80;;
14326;SDS011;7247;53.330;-1.180;2022-11-09T05:45:59;20.50;;;4.27;;
14326;SDS011;7247;53.330;-1.180;2022-11-09T05:48:27;13.23;;;3.07;;
14326;SDS011;7247;53.330;-1.180;2022-11-09T05:50:53;12.83;;;3.03;;
14326;SDS011;7247;53.330;-1.180;2022-11-09T05:53:20;15.50;;;3.30;;
14326;SDS011;7247;53.330;-1.180;2022-11-09T05:55:46;20.87;;;3.80;;
14326;SDS011;7247;53.330;-1.180;2022-11-09T05:58:13;12.83;;;3.30;;
14326;SDS011;7247;53.330;-1.180;2022-11-09T06:00:40;18.50;;;4.03;;
14326;SDS011;7247;53.330;-1.180;2022-11-09T06:03:07;13.60;;;3.27;;
14326;SDS011;7247;53.330;-1.180;2022-11-09T06:05:35;17.13;;;3.87;;
14326;SDS011;7247;53.330;-1.180;2022-11-09T06:08:02;14.53;;;4.43;;
14326;SDS011;7247;53.330;-1.180;2022-11-09T06:10:28;10.23;;;3.33;;
14326;SDS011;7247;53.330;-1.180;2022-11-09T06:12:55;13.00;;;3.50;;
14326;SDS011;7247;53.330;-1.180;2022-11-09T06:15:21;18.17;;;3.40;;
14326;SDS011;7247;53.330;-1.180;2022-11-09T06:17:49;15.20;;;3.07;;
14326;SDS011;7247;53.330;-1.180;2022-11-09T06:20:16;18.50;;;3.30;;
14326;SDS011;7247;53.330;-1.180;2022-11-09T06:22:44;12.37;;;3.30;;
14326;SDS011;7247;53.330;-1.180;2022-11-09T06:25:10;13.27;;;3.23;;
14326;SDS011;7247;53.330;-1.180;2022-11-09T06:27:37;16.23;;;3.33;;
14326;SDS011;7247;53.330;-1.180;2022-11-09T06:30:04;18.40;;;3.30;;
14326;SDS011;7247;53.330;-1.180;2022-11-09T06:32:30;18.47;;;3.13;;
14326;SDS011;7247;53.330;-1.180;2022-11-09T06:34:56;18.20;;;2.87;;
14326;SDS011;7247;53.330;-1.180;2022-11-09T06:37:23;16.70;;;3.57;;
14326;SDS011;7247;53.330;-1.180;2022-11-09T06:39:51;12.43;;;2.70;;
14326;SDS011;7247;53.330;-1.180;2022-11-09T06:42:17;14.23;;;3.20;;
14326;SDS011;7247;53.330;-1.180;2022-11-09T06:44:43;16.53;;;3.20;;
14326;SDS011;7247;53.330;-1.180;2022-11-09T06:47:10;12.47;;;3.07;;
14326;SDS011;7247;53.330;-1.180;2022-11-09T06:49:36;15.40;;;3.30;;
14326;SDS011;7247;53.330;-1.180;2022-11-09T06:52:03;14.67;;;3.00;;
14326;SDS011;7247;53.330;-1.180;2022-11-09T06:54:30;12.63;;;2.80;;
14326;SDS011;7247;53.330;-1.180;2022-11-09T06:56:58;9.80;;;2.80;;
14326;SDS011;7247;53.330;-1.180;2022-11-09T06:59:24;12.80;;;2.83;;
14326;SDS011;7247;53.330;-1.180;2022-11-09T07:01:52;8.40;;;2.80;;
14326;SDS011;7247;53.330;-1.180;2022-11-09T07:04:18;12.33;;;2.93;;
14326;SDS011;7247;53.330;-1.180;2022-11-09T07:06:44;14.60;;;3.10;;
14326;SDS011;7247;53.330;-1.180;2022-11-09T07:09:11;11.37;;;2.67;;
14326;SDS011;7247;53.330;-1.180;2022-11-09T07:11:37;10.40;;;2.50;;
14326;SDS011;7247;53.330;-1.180;2022-11-09T07:14:05;11.43;;;2.73;;
14326;SDS011;7247;53.330;-1.180;2022-11-09T07:16:31;9.60;;;2.60;;
14326;SDS011;7247;53.330;-1.180;2022-11-09T07:18:58;10.47;;;2.30;;
14326;SDS011;7247;53.330;-1.180;2022-11-09T07:21:24;12.43;;;3.03;;
14326;SDS011;7247;53.330;-1.180;2022-11-09T07:23:51;11.77;;;3.30;;
14326;SDS011;7247;53.330;-1.180;2022-11-09T07:26:17;14.30;;;3.07;;
14326;SDS011;7247;53.330;-1.180;2022-11-09T07:28:44;16.07;;;3.50;;
14326;SDS011;7247;53.330;-1.180;2022-11-09T07:31:11;12.33;;;4.00;;
14326;SDS011;7247;53.330;-1.180;2022-11-09T07:33:38;13.83;;;3.80;;
14326;SDS011;7247;53.330;-1.180;2022-11-09T07:36:04;13.23;;;3.83;;
14326;SDS011;7247;53.330;-1.180;2022-11-09T07:38:31;11.97;;;4.20;;
14326;SDS011;7247;53.330;-1.180;2022-11-09T07:40:58;13.37;;;3.50;;
14326;SDS011;7247;53.330;-1.180;2022-11-09T07:43:25;12.87;;;3.37;;
14326;SDS011;7247;53.330;-1.180;2022-11-09T07:45:51;7.87;;;3.43;;
14326;SDS011;7247;53.330;-1.180;2022-11-09T07:48:19;15.90;;;3.57;;
14326;SDS011;7247;53.330;-1.180;2022-11-09T07:50:46;11.20;;;3.20;;
14326;SDS011;7247;53.330;-1.180;2022-11-09T07:53:13;10.67;;;3.20;;
14326;SDS011;7247;53.330;-1.180;2022-11-09T07:55:40;9.90;;;3.30;;
14326;SDS011;7247;53.330;-1.180;2022-11-09T07:58:07;11.47;;;3.27;;
14326;SDS011;7247;53.330;-1.180;2022-11-09T08:00:36;8.27;;;2.97;;
14326;SDS011;7247;53.330;-1.180;2022-11-09T08:03:03;10.87;;;2.70;;
14326;SDS011;7247;53.330;-1.180;2022-11-09T08:05:31;9.63;;;2.67;;
14326;SDS011;7247;53.330;-1.180;2022-11-09T08:07:58;10.30;;;2.83;;
14326;SDS011;7247;53.330;-1.180;2022-11-09T08:10:25;10.63;;;3.00;;
14326;SDS011;7247;53.330;-1.180;2022-11-09T08:12:53;8.70;;;3.47;;
14326;SDS011;7247;53.330;-1.180;2022-11-09T08:15:19;8.50;;;3.40;;
14326;SDS011;7247;53.330;-1.180;2022-11-09T08:17:46;13.90;;;3.17;;
14326;SDS011;7247;53.330;-1.180;2022-11-09T08:20:12;5.60;;;2.70;;
14326;SDS011;7247;53.330;-1.180;2022-11-09T08:22:41;13.47;;;3.57;;
14326;SDS011;7247;53.330;-1.180;2022-11-09T08:25:08;10.80;;;3.27;;
14326;SDS011;7247;53.330;-1.180;2022-11-09T08:27:34;9.87;;;3.13;;
14326;SDS011;7247;53.330;-1.180;2022-11-09T08:30:04;7.53;;;2.70;;
14326;SDS011;7247;53.330;-1.180;2022-11-09T08:32:31;6.07;;;2.83;;
14326;SDS011;7247;53.330;-1.180;2022-11-09T08:34:57;6.03;;;2.37;;
14326;SDS011;7247;53.330;-1.180;2022-11-09T08:37:24;6.33;;;2.33;;
14326;SDS011;7247;53.330;-1.180;2022-11-09T08:39:51;6.07;;;2.57;;
14326;SDS011;7247;53.330;-1.180;2022-11-09T08:42:18;12.87;;;2.40;;
14326;SDS011;7247;53.330;-1.180;2022-11-09T08:44:44;6.77;;;2.30;;
14326;SDS011;7247;53.330;-1.180;2022-11-09T08:47:11;7.97;;;2.30;;
14326;SDS011;7247;53.330;-1.180;2022-11-09T08:49:37;8.50;;;2.40;;
14326;SDS011;7247;53.330;-1.180;2022-11-09T08:52:03;9.87;;;2.80;;
14326;SDS011;7247;53.330;-1.180;2022-11-09T08:54:30;10.47;;;2.83;;
14326;SDS011;7247;53.330;-1.180;2022-11-09T08:56:58;8.03;;;2.67;;
14326;SDS011;7247;53.330;-1.180;2022-11-09T08:59:24;9.33;;;2.20;;
14326;SDS011;7247;53.330;-1.180;2022-11-09T09:01:51;8.17;;;2.23;;
14326;SDS011;7247;53.330;-1.180;2022-11-09T09:04:17;4.27;;;1.80;;
14326;SDS011;7247;53.330;-1.180;2022-11-09T09:06:44;7.77;;;2.00;;
14326;SDS011;7247;53.330;-1.180;2022-11-09T09:09:10;4.77;;;2.30;;
14326;SDS011;7247;53.330;-1.180;2022-11-09T09:11:36;5.80;;;2.10;;
14326;SDS011;7247;53.330;-1.180;2022-11-09T09:14:04;6.43;;;2.03;;
14326;SDS011;7247;53.330;-1.180;2022-11-09T09:16:31;5.33;;;2.00;;
14326;SDS011;7247;53.330;-1.180;2022-11-09T09:18:57;6.00;;;2.10;;
14326;SDS011;7247;53.330;-1.180;2022-11-09T09:21:24;7.73;;;2.13;;
14326;SDS011;7247;53.330;-1.180;2022-11-09T09:23:50;4.27;;;1.97;;
14326;SDS011;7247;53.330;-1.180;2022-11-09T09:26:17;9.53;;;2.67;;
14326;SDS011;7247;53.330;-1.180;2022-11-09T09:28:43;4.73;;;1.90;;
14326;SDS011;7247;53.330;-1.180;2022-11-09T09:31:11;4.87;;;1.90;;
14326;SDS011;7247;53.330;-1.180;2022-11-09T09:33:37;5.60;;;1.63;;
14326;SDS011;7247;53.330;-1.180;2022-11-09T09:36:04;5.47;;;2.30;;
14326;SDS011;7247;53.330;-1.180;2022-11-09T09:38:30;4.17;;;1.70;;
14326;SDS011;7247;53.330;-1.180;2022-11-09T09:40:58;9.73;;;3.93;;
14326;SDS011;7247;53.330;-1.180;2022-11-09T09:43:28;6.43;;;2.10;;
14326;SDS011;7247;53.330;-1.180;2022-11-09T09:45:55;7.37;;;1.93;;
14326;SDS011;7247;53.330;-1.180;2022-11-09T09:48:27;5.77;;;2.20;;
14326;SDS011;7247;53.330;-1.180;2022-11-09T09:50:57;6.33;;;1.80;;
14326;SDS011;7247;53.330;-1.180;2022-11-09T09:53:25;3.10;;;1.30;;
14326;SDS011;7247;53.330;-1.180;2022-11-09T09:55:55;3.13;;;1.27;;
14326;SDS011;7247;53.330;-1.180;2022-11-09T09:58:22;5.90;;;2.20;;
14326;SDS011;7247;53.330;-1.180;2022-11-09T10:00:50;5.20;;;1.67;;
14326;SDS011;7247;53.330;-1.180;2022-11-09T10:03:25;5.87;;;1.83;;
14326;SDS011;7247;53.330;-1.180;2022-11-09T10:05:54;3.77;;;1.40;;
14326;SDS011;7247;53.330;-1.180;2022-11-09T10:08:25;6.23;;;1.77;;
14326;SDS011;7247;53.330;-1.180;2022-11-09T10:10:59;5.53;;;1.60;;
14326;SDS011;7247;53.330;-1.180;2022-11-09T10:13:40;4.63;;;1.80;;
14326;SDS011;7247;53.330;-1.180;2022-11-09T10:16:11;5.67;;;1.60;;
14326;SDS011;7247;53.330;-1.180;2022-11-09T10:18:43;3.13;;;1.27;;
14326;SDS011;7247;53.330;-1.180;2022-11-09T10:21:19;2.57;;;1.10;;
14326;SDS011;7247;53.330;-1.180;2022-11-09T10:23:55;4.60;;;1.47;;
14326;SDS011;7247;53.330;-1.180;2022-11-09T10:26:26;4.60;;;1.47;;
14326;SDS011;7247;53.330;-1.180;2022-11-09T10:28:57;5.43;;;1.80;;
14326;SDS011;7247;53.330;-1.180;2022-11-09T10:31:25;5.93;;;1.40;;
14326;SDS011;7247;53.330;-1.180;2022-11-09T10:33:57;5.50;;;1.50;;
14326;SDS011;7247;53.330;-1.180;2022-11-09T10:36:26;4.53;;;1.30;;
14326;SDS011;7247;53.330;-1.180;2022-11-09T10:38:57;4.90;;;1.30;;
14326;SDS011;7247;53.330;-1.180;2022-11-09T10:41:26;4.30;;;1.67;;
14326;SDS011;7247;53.330;-1.180;2022-11-09T10:43:54;5.00;;;1.70;;
14326;SDS011;7247;53.330;-1.180;2022-11-09T10:46:21;5.17;;;1.80;;
14326;SDS011;7247;53.330;-1.180;2022-11-09T10:48:48;7.23;;;2.10;;
14326;SDS011;7247;53.330;-1.180;2022-11-09T10:51:33;6.87;;;1.70;;
14326;SDS011;7247;53.330;-1.180;2022-11-09T10:54:12;3.13;;;1.70;;
14326;SDS011;7247;53.330;-1.180;2022-11-09T10:56:42;5.67;;;1.60;;
14326;SDS011;7247;53.330;-1.180;2022-11-09T10:59:30;4.67;;;1.33;;
14326;SDS011;7247;53.330;-1.180;2022-11-09T11:01:59;3.77;;;1.43;;
14326;SDS011;7247;53.330;-1.180;2022-11-09T11:04:25;3.90;;;1.60;;
14326;SDS011;7247;53.330;-1.180;2022-11-09T11:06:53;7.40;;;1.80;;
14326;SDS011;7247;53.330;-1.180;2022-11-09T11:09:20;4.77;;;1.40;;
14326;SDS011;7247;53.330;-1.180;2022-11-09T11:11:47;8.00;;;2.00;;
14326;SDS011;7247;53.330;-1.180;2022-11-09T11:14:14;3.67;;;1.33;;
14326;SDS011;7247;53.330;-1.180;2022-11-09T11:16:42;4.67;;;1.80;;
14326;SDS011;7247;53.330;-1.180;2022-11-09T11:24:46;5.43;;;1.60;;
14326;SDS011;7247;53.330;-1.180;2022-11-09T11:27:17;5.50;;;1.60;;
14326;SDS011;7247;53.330;-1.180;2022-11-09T11:29:45;5.23;;;1.60;;
14326;SDS011;7247;53.330;-1.180;2022-11-09T11:32:14;3.67;;;1.20;;
14326;SDS011;7247;53.330;-1.180;2022-11-09T11:34:41;8.20;;;1.60;;
14326;SDS011;7247;53.330;-1.180;2022-11-09T11:37:15;5.23;;;1.50;;
14326;SDS011;7247;53.330;-1.180;2022-11-09T11:39:49;4.73;;;1.50;;
14326;SDS011;7247;53.330;-1.180;2022-11-09T11:42:24;5.57;;;1.70;;
14326;SDS011;7247;53.330;-1.180;2022-11-09T11:44:58;6.30;;;1.47;;
14326;SDS011;7247;53.330;-1.180;2022-11-09T11:47:30;8.77;;;1.80;;
14326;SDS011;7247;53.330;-1.180;2022-11-09T11:50:07;5.53;;;1.60;;
14326;SDS011;7247;53.330;-1.180;2022-11-09T11:52:41;4.70;;;1.60;;
14326;SDS011;7247;53.330;-1.180;2022-11-09T11:55:19;6.43;;;1.80;;
14326;SDS011;7247;53.330;-1.180;2022-11-09T11:57:52;4.27;;;1.70;;
14326;SDS011;7247;53.330;-1.180;2022-11-09T12:00:22;8.73;;;1.73;;
14326;SDS011;7247;53.330;-1.180;2022-11-09T12:05:43;4.83;;;1.63;;
14326;SDS011;7247;53.330;-1.180;2022-11-09T12:08:14;7.30;;;2.13;;
14326;SDS011;7247;53.330;-1.180;2022-11-09T12:10:48;10.57;;;1.87;;
14326;SDS011;7247;53.330;-1.180;2022-11-09T12:13:24;6.87;;;1.60;;
14326;SDS011;7247;53.330;-1.180;2022-11-09T12:15:56;6.80;;;1.60;;
14326;SDS011;7247;53.330;-1.180;2022-11-09T12:18:30;10.87;;;1.90;;
14326;SDS011;7247;53.330;-1.180;2022-11-09T12:21:03;5.53;;;1.80;;
14326;SDS011;7247;53.330;-1.180;2022-11-09T12:23:37;5.13;;;1.43;;
14326;SDS011;7247;53.330;-1.180;2022-11-09T12:26:14;4.27;;;1.50;;
14326;SDS011;7247;53.330;-1.180;2022-11-09T12:28:47;4.47;;;1.50;;
14326;SDS011;7247;53.330;-1.180;2022-11-09T12:31:22;6.03;;;1.70;;
14326;SDS011;7247;53.330;-1.180;2022-11-09T12:33:53;5.37;;;1.93;;
14326;SDS011;7247;53.330;-1.180;2022-11-09T12:36:23;6.73;;;1.43;;
14326;SDS011;7247;53.330;-1.180;2022-11-09T12:38:53;5.93;;;1.60;;
14326;SDS011;7247;53.330;-1.180;2022-11-09T12:41:24;7.50;;;1.70;;
14326;SDS011;7247;53.330;-1.180;2022-11-09T12:43:55;6.27;;;1.53;;
14326;SDS011;7247;53.330;-1.180;2022-11-09T12:46:23;5.00;;;1.57;;
14326;SDS011;7247;53.330;-1.180;2022-11-09T12:48:51;7.50;;;1.53;;
14326;SDS011;7247;53.330;-1.180;2022-11-09T12:51:19;5.73;;;1.60;;
14326;SDS011;7247;53.330;-1.180;2022-11-09T12:53:46;7.20;;;1.77;;
14326;SDS011;7247;53.330;-1.180;2022-11-09T12:56:14;4.40;;;1.83;;
14326;SDS011;7247;53.330;-1.180;2022-11-09T12:58:43;6.53;;;1.80;;
14326;SDS011;7247;53.330;-1.180;2022-11-09T13:01:10;7.60;;;1.70;;
14326;SDS011;7247;53.330;-1.180;2022-11-09T13:03:38;7.73;;;1.77;;
14326;SDS011;7247;53.330;-1.180;2022-11-09T13:06:08;6.93;;;1.60;;
14326;SDS011;7247;53.330;-1.180;2022-11-09T13:08:35;6.47;;;1.83;;
14326;SDS011;7247;53.330;-1.180;2022-11-09T13:11:09;8.50;;;1.90;;
14326;SDS011;7247;53.330;-1.180;2022-11-09T13:13:36;8.47;;;1.90;;
14326;SDS011;7247;53.330;-1.180;2022-11-09T13:16:05;8.73;;;1.87;;
14326;SDS011;7247;53.330;-1.180;2022-11-09T13:18:45;8.73;;;1.77;;
14326;SDS011;7247;53.330;-1.180;2022-11-09T13:23:57;4.53;;;1.60;;
14326;SDS011;7247;53.330;-1.180;2022-11-09T13:26:52;5.57;;;1.77;;
14326;SDS011;7247;53.330;-1.180;2022-11-09T13:29:20;7.53;;;1.97;;
14326;SDS011;7247;53.330;-1.180;2022-11-09T13:34:43;5.40;;;1.77;;
14326;SDS011;7247;53.330;-1.180;2022-11-09T13:39:55;9.17;;;1.97;;
14326;SDS011;7247;53.330;-1.180;2022-11-09T13:42:25;4.47;;;1.73;;
14326;SDS011;7247;53.330;-1.180;2022-11-09T13:44:52;6.90;;;1.63;;
14326;SDS011;7247;53.330;-1.180;2022-11-09T13:47:20;5.57;;;1.70;;
14326;SDS011;7247;53.330;-1.180;2022-11-09T13:49:48;7.50;;;1.60;;
14326;SDS011;7247;53.330;-1.180;2022-11-09T13:55:00;6.83;;;1.80;;
14326;SDS011;7247;53.330;-1.180;2022-11-09T13:57:27;5.57;;;1.90;;
14326;SDS011;7247;53.330;-1.180;2022-11-09T13:59:56;4.57;;;1.23;;
14326;SDS011;7247;53.330;-1.180;2022-11-09T14:02:24;6.17;;;1.50;;
14326;SDS011;7247;53.330;-1.180;2022-11-09T14:04:52;5.33;;;1.40;;
14326;SDS011;7247;53.330;-1.180;2022-11-09T14:07:21;9.57;;;2.00;;
14326;SDS011;7247;53.330;-1.180;2022-11-09T14:09:49;3.23;;;1.60;;
14326;SDS011;7247;53.330;-1.180;2022-11-09T14:12:29;6.27;;;1.73;;
14326;SDS011;7247;53.330;-1.180;2022-11-09T14:15:07;6.20;;;1.70;;
14326;SDS011;7247;53.330;-1.180;2022-11-09T14:17:36;6.60;;;1.90;;
14326;SDS011;7247;53.330;-1.180;2022-11-09T14:20:10;5.60;;;1.67;;
14326;SDS011;7247;53.330;-1.180;2022-11-09T14:22:40;5.80;;;1.70;;
14326;SDS011;7247;53.330;-1.180;2022-11-09T14:25:11;6.43;;;1.67;;
14326;SDS011;7247;53.330;-1.180;2022-11-09T14:27:44;5.77;;;1.80;;
14326;SDS011;7247;53.330;-1.180;2022-11-09T14:30:16;7.57;;;1.77;;
14326;SDS011;7247;53.330;-1.180;2022-11-09T14:32:46;5.13;;;1.40;;
14326;SDS011;7247;53.330;-1.180;2022-11-09T14:35:19;4.53;;;1.53;;
14326;SDS011;7247;53.330;-1.180;2022-11-09T14:37:46;6.63;;;1.70;;
14326;SDS011;7247;53.330;-1.180;2022-11-09T14:40:16;7.23;;;1.53;;
14326;SDS011;7247;53.330;-1.180;2022-11-09T14:42:45;8.53;;;1.77;;
14326;SDS011;7247;53.330;-1.180;2022-11-09T14:45:13;8.57;;;2.20;;
14326;SDS011;7247;53.330;-1.180;2022-11-09T14:47:42;6.57;;;1.53;;
14326;SDS011;7247;53.330;-1.180;2022-11-09T14:50:09;8.13;;;1.70;;
14326;SDS011;7247;53.330;-1.180;2022-11-09T14:52:41;9.60;;;2.17;;
14326;SDS011;7247;53.330;-1.180;2022-11-09T14:55:10;3.43;;;1.33;;
14326;SDS011;7247;53.330;-1.180;2022-11-09T14:57:37;4.90;;;1.33;;
14326;SDS011;7247;53.330;-1.180;2022-11-09T15:00:04;6.33;;;1.70;;
14326;SDS011;7247;53.330;-1.180;2022-11-09T15:02:30;8.00;;;2.07;;
14326;SDS011;7247;53.330;-1.180;2022-11-09T15:04:57;6.07;;;1.40;;
14326;SDS011;7247;53.330;-1.180;2022-11-09T15:07:26;5.10;;;1.63;;